»·PEaware :: AAL231 KSLC-KGJT

AAL231 :: KSLC-KGJT

FLIGHT INFORMATION

Flight Status: Arrived
Operator:
American Airlines
More flights by this operator :: More flights under this callsign
Pilot: Alfonso U. (14209)
Aircraft: BOEING 737-800
(B738)
More flights by this aircraft type
Origin: KSLC Salt Lake City Intl
United States
Destination: KGJT Walker
United States
More flights between these airports :: More routes between these airports
Route: +NSIGN5 MTU JNC
File this flight plan on PilotEdge
Remarks:
Altitude:
(Current/Filed)
29,000ft
Speed:
(Current/Filed)
500kts
Departed: 03-Nov-17 03:04 PM
Arrived: 03-Nov-17 03:51 PM
Distance/Time
Traveled:
187nm/0:47
Distance/Time
To Go:
Arrived

Flight Plot

Page will automatically refresh every two minutes.

Flight plan parsing failed; only flown route is shown


Map Options




Map Legend


Flown Route
Filed Route
Departure Airport
Arrival Airport
Navaid (VOR, NDB)
Fix

Horizontal Profiles

Position Reports

Time Latitude Longitude Heading Altitude Ground
Speed
03-Nov-17 14:46 40.784862 -111.978446 355 4235ft 0kts
03-Nov-17 14:47 40.784862 -111.978446 355 4235ft 0kts
03-Nov-17 14:48 40.784862 -111.978446 355 4235ft 0kts
03-Nov-17 14:49 40.784862 -111.978446 355 4235ft 0kts
03-Nov-17 14:50 40.784862 -111.978446 355 4235ft 0kts
03-Nov-17 14:51 40.784862 -111.978446 355 4235ft 0kts
03-Nov-17 14:52 40.784862 -111.978446 355 4235ft 0kts
03-Nov-17 14:53 40.784862 -111.978446 355 4235ft 0kts
03-Nov-17 14:54 40.784862 -111.978446 355 4235ft 0kts
03-Nov-17 14:55 40.784862 -111.978446 355 4235ft 0kts
03-Nov-17 14:56 40.784862 -111.978446 355 4235ft 0kts
03-Nov-17 14:57 40.784862 -111.978446 355 4235ft 0kts
03-Nov-17 14:58 40.784862 -111.978446 355 4235ft 0kts
03-Nov-17 14:59 40.784862 -111.978446 355 4235ft 0kts
03-Nov-17 15:00 40.784756 -111.978436 355 4235ft 4kts
03-Nov-17 15:01 40.784285 -111.978760 88 4235ft 0kts
03-Nov-17 15:02 40.784285 -111.978760 88 4235ft 0kts
03-Nov-17 15:03 40.783990 -111.976571 134 4235ft 14kts
03-Nov-17 15:04 40.777615 -111.975652 174 4235ft 31kts
03-Nov-17 15:05 40.774492 -111.974386 91 4235ft 0kts
03-Nov-17 15:06 40.774492 -111.974386 91 4235ft 0kts
03-Nov-17 15:07 40.774492 -111.974386 91 4235ft 0kts
03-Nov-17 15:08 40.774678 -111.973782 50 4235ft 13kts
03-Nov-17 15:09 40.785934 -111.974474 355 4236ft 145kts
03-Nov-17 15:10 40.810099 -112.011756 250 6232ft 236kts
03-Nov-17 15:11 40.794937 -112.081731 297 8798ft 260kts
03-Nov-17 15:12 40.863367 -112.099254 28 10023ft 359kts
03-Nov-17 15:13 40.957824 -112.032136 22 10814ft 462kts
03-Nov-17 15:14 41.089047 -111.991912 25 17507ft 416kts
03-Nov-17 15:15 41.139318 -111.920781 61 22918ft 359kts
03-Nov-17 15:16 41.114141 -111.788686 140 23001ft 449kts
03-Nov-17 15:17 40.998167 -111.723610 169 24960ft 450kts
03-Nov-17 15:18 40.898584 -111.682941 172 28948ft 403kts
03-Nov-17 15:19 40.787484 -111.632756 156 28945ft 478kts
03-Nov-17 15:20 40.714368 -111.480482 115 28953ft 527kts
03-Nov-17 15:21 40.663831 -111.304283 116 28938ft 526kts
03-Nov-17 15:22 40.613882 -111.131714 116 28939ft 526kts
03-Nov-17 15:23 40.563503 -110.958787 116 28941ft 526kts
03-Nov-17 15:24 40.512333 -110.784301 116 28943ft 526kts
03-Nov-17 15:25 40.460566 -110.608930 116 28945ft 526kts
03-Nov-17 15:26 40.395090 -110.444291 138 28976ft 508kts
03-Nov-17 15:27 40.298222 -110.316360 143 28660ft 507kts
03-Nov-17 15:28 40.198440 -110.189630 143 26645ft 505kts
03-Nov-17 15:29 40.097721 -110.062845 142 24651ft 508kts
03-Nov-17 15:30 39.996183 -109.936119 142 23462ft 511kts
03-Nov-17 15:31 39.899988 -109.816394 142 22116ft 445kts
03-Nov-17 15:32 39.816231 -109.712873 142 20394ft 413kts
03-Nov-17 15:33 39.735210 -109.613027 142 18427ft 399kts
03-Nov-17 15:34 39.656510 -109.516318 141 16459ft 385kts
03-Nov-17 15:35 39.580419 -109.423052 140 14980ft 366kts
03-Nov-17 15:36 39.514070 -109.342059 139 14955ft 303kts
03-Nov-17 15:37 39.475272 -109.294705 139 14969ft 307kts
03-Nov-17 15:38 39.416273 -109.222849 139 14966ft 306kts
03-Nov-17 15:39 39.355832 -109.149039 142 14991ft 319kts
03-Nov-17 15:40 39.289948 -109.069738 142 14992ft 328kts
03-Nov-17 15:41 39.223413 -108.989445 142 14993ft 328kts
03-Nov-17 15:42 39.157151 -108.909682 142 14994ft 328kts
03-Nov-17 15:43 39.090554 -108.829653 140 14992ft 329kts
03-Nov-17 15:44 39.032028 -108.738689 131 13012ft 323kts
03-Nov-17 15:45 38.980471 -108.656811 132 11968ft 257kts
03-Nov-17 15:46 38.938011 -108.589473 133 11535ft 234kts
03-Nov-17 15:47 38.898919 -108.527807 133 10949ft 211kts
03-Nov-17 15:48 38.864230 -108.473134 133 10963ft 188kts
03-Nov-17 15:49 38.870000 -108.414632 22 9616ft 211kts
03-Nov-17 15:50 38.921257 -108.384291 24 8534ft 191kts
03-Nov-17 15:51 38.971017 -108.362446 333 8552ft 190kts
03-Nov-17 15:52 39.008955 -108.405822 315 7571ft 170kts
03-Nov-17 15:53 39.045449 -108.441460 317 6808ft 166kts
03-Nov-17 15:54 39.082506 -108.477096 316 6461ft 169kts
03-Nov-17 15:55 39.117949 -108.513007 297 4984ft 154kts
03-Nov-17 15:56 39.134017 -108.542920 261 4865ft 0kts
03-Nov-17 15:57 39.133528 -108.543667 216 4865ft 0kts
03-Nov-17 15:58 39.131621 -108.540656 125 4865ft 18kts
03-Nov-17 15:59 39.128630 -108.537054 214 4865ft 0kts
03-Nov-17 16:00 39.128630 -108.537054 214 4865ft 0kts
03-Nov-17 16:01 39.128630 -108.537054 214 4865ft 0kts
03-Nov-17 16:02 39.128630 -108.537054 214 4865ft 0kts
03-Nov-17 16:03 39.128630 -108.537054 214 4865ft 0kts

Navigation Log

Ident Type
Flight plan parsing failed, navigation log unavailable